Time,TemperatureF,DewpointF,PressureIn,WindDirection,WindDirectionDegrees,WindSpeedMPH,WindSpeedGustMPH,Humidity,HourlyPrecipIn,Conditions,Clouds,dailyrainin,SolarRadiationWatts/m^2,SoftwareType,DateUTC
2013-07-02 01:00:00,69.0,43.0,-100.00,SE,139,2.0,3.0,38,-99.99,,,-99.99,-0.200000,,2013-07-02 08:00:00,
2013-07-02 01:53:00,69.0,43.0,-100.00,SE,139,2.0,3.0,38,-99.99,,,-99.99,-0.200000,,2013-07-02 08:53:00,
2013-07-02 02:00:00,69.0,43.0,-100.00,SE,144,3.0,4.0,40,-99.99,,,-99.99,23.500000,,2013-07-02 09:00:00,
2013-07-02 03:00:00,69.0,47.0,-100.00,SE,146,3.0,5.0,45,-99.99,,,-99.99,-0.200000,,2013-07-02 10:00:00,
2013-07-02 03:52:00,69.0,47.0,-100.00,SE,146,3.0,5.0,45,-99.99,,,-99.99,-0.200000,,2013-07-02 10:52:00,
2013-07-02 04:00:00,69.0,46.0,-100.00,South,177,4.0,6.0,44,-99.99,,,-99.99,-0.200000,,2013-07-02 11:00:00,
2013-07-02 04:52:00,69.0,46.0,-100.00,South,177,4.0,6.0,44,-99.99,,,-99.99,-0.200000,,2013-07-02 11:52:00,
2013-07-02 05:00:00,67.0,48.0,-100.00,South,191,3.0,5.0,51,-99.99,,,-99.99,0.200000,,2013-07-02 12:00:00,
2013-07-02 05:52:00,67.0,48.0,-100.00,South,191,3.0,5.0,51,-99.99,,,-99.99,0.200000,,2013-07-02 12:52:00,
2013-07-02 06:00:00,70.0,39.0,-100.00,SW,221,4.0,6.0,32,-99.99,,,-99.99,27.500000,,2013-07-02 13:00:00,
2013-07-02 07:00:00,72.0,36.0,-100.00,ESE,122,4.0,6.0,27,-99.99,,,-99.99,162.899994,,2013-07-02 14:00:00,
2013-07-02 07:53:00,72.0,36.0,-100.00,ESE,122,4.0,6.0,27,-99.99,,,-99.99,162.899994,,2013-07-02 14:53:00,
2013-07-02 08:00:00,74.0,37.0,-100.00,ESE,106,1.0,4.0,26,-99.99,,,-99.99,232.300003,,2013-07-02 15:00:00,
2013-07-02 09:00:00,77.0,36.0,-100.00,WSW,241,1.0,3.0,23,-99.99,,,-99.99,497.399994,,2013-07-02 16:00:00,
2013-07-02 10:00:00,78.0,44.0,-100.00,SSE,155,2.0,4.0,30,-99.99,,,-99.99,645.099976,,2013-07-02 17:00:00,
2013-07-02 11:00:00,75.0,47.0,-100.00,NE,37,2.0,4.0,37,-99.99,,,-99.99,774.299988,,2013-07-02 18:00:00,
2013-07-02 12:00:00,80.0,42.0,-100.00,SSE,152,2.0,4.0,26,-99.99,,,-99.99,868.400024,,2013-07-02 19:00:00,
2013-07-02 13:00:00,79.0,43.0,-100.00,SSE,151,2.0,5.0,27,-99.99,,,-99.99,915.000000,,2013-07-02 20:00:00,
2013-07-02 13:52:00,79.0,43.0,-100.00,SSE,151,2.0,5.0,27,-99.99,,,-99.99,915.000000,,2013-07-02 20:52:00,
2013-07-02 14:00:00,79.0,38.0,-100.00,ESE,123,3.0,5.0,23,-99.99,,,-99.99,927.700012,,2013-07-02 21:00:00,
2013-07-02 14:52:00,79.0,38.0,-100.00,ESE,123,3.0,5.0,23,-99.99,,,-99.99,927.700012,,2013-07-02 21:52:00,
2013-07-02 15:00:00,81.0,43.0,-100.00,South,181,3.0,6.0,26,-99.99,,,-99.99,878.500000,,2013-07-02 22:00:00,
2013-07-02 15:43:00,81.0,43.0,-100.00,South,181,3.0,6.0,26,-99.99,,,-99.99,878.500000,,2013-07-02 22:43:00,
2013-07-02 15:53:00,81.0,43.0,-100.00,South,181,3.0,6.0,26,-99.99,,,-99.99,878.500000,,2013-07-02 22:53:00,
2013-07-02 16:00:00,80.0,44.0,-100.00,East,100,3.0,6.0,28,-99.99,,,-99.99,770.299988,,2013-07-02 23:00:00,
2013-07-02 16:44:00,80.0,44.0,-100.00,East,100,3.0,6.0,28,-99.99,,,-99.99,770.299988,,2013-07-02 23:44:00,
2013-07-02 16:52:00,80.0,44.0,-100.00,East,100,3.0,6.0,28,-99.99,,,-99.99,770.299988,,2013-07-02 23:52:00,
2013-07-02 17:00:00,79.0,42.0,-100.00,SSE,150,3.0,6.0,27,-99.99,,,-99.99,655.200012,,2013-07-03 00:00:00,
2013-07-02 17:52:00,79.0,42.0,-100.00,SSE,150,3.0,6.0,27,-99.99,,,-99.99,655.200012,,2013-07-03 00:52:00,
2013-07-02 18:00:00,76.0,41.0,-100.00,SSW,203,4.0,8.0,29,-99.99,,,-99.99,491.700012,,2013-07-03 01:00:00,
2013-07-02 18:59:00,76.0,41.0,-100.00,SSW,203,4.0,8.0,29,-99.99,,,-99.99,491.700012,,2013-07-03 01:59:00,
2013-07-02 19:00:00,74.0,42.0,-100.00,SE,132,4.0,8.0,32,-99.99,,,-99.99,139.600006,,2013-07-03 02:00:00,
2013-07-02 20:00:00,70.0,41.0,-100.00,SSE,149,4.0,6.0,35,-99.99,,,-99.99,158.500000,,2013-07-03 03:00:00,
2013-07-02 20:58:00,70.0,41.0,-100.00,SSE,149,4.0,6.0,35,-99.99,,,-99.99,158.500000,,2013-07-03 03:58:00,
2013-07-02 21:00:00,66.0,41.0,-100.00,SSW,210,4.0,6.0,41,-99.99,,,-99.99,29.200001,,2013-07-03 04:00:00,
2013-07-02 21:52:00,66.0,41.0,-100.00,SSW,210,4.0,6.0,41,-99.99,,,-99.99,29.200001,,2013-07-03 04:52:00,
2013-07-02 22:00:00,67.0,40.0,-100.00,South,191,4.0,9.0,38,-99.99,,,0.00,1.100000,,2013-07-03 05:00:00,
2013-07-02 22:59:00,67.0,40.0,-100.00,South,191,4.0,9.0,38,-99.99,,,0.00,1.100000,,2013-07-03 05:59:00,
2013-07-02 23:00:00,66.0,38.0,-100.00,North,-999,-999.0,-999.0,36,-99.99,,,0.00,,,2013-07-03 06:00:00,
2013-07-02 23:58:00,66.0,38.0,-100.00,North,-999,-999.0,-999.0,36,-99.99,,,0.00,,,2013-07-03 06:58:00,